EMB0471 SBJP-GCRR
Flight info
| Callsign | EMB0471 |
|---|---|
| Flight time | N/A |
| Altitude | 35000 |
| Route | SAFUC DCT NTL UN873 SADBA/N0455F370 UN873 IPERA N873 ODEGI/N0448F380 N873 GDV DCT RASEP |
| Aircraft | E35L/M-SABDFGRW/S |
Departure
| Time | N/A |
|---|---|
| Airport | Presidente Castro Pinto International Airport (SBJP) |
Arrival
| Time | 2026-05-01 14:33 |
|---|---|
| Airport | César Manrique-Lanzarote Airport (GCRR) |
| Time | Latitude | Longitude | Altitude | Speed | Heading |
|---|---|---|---|---|---|
| 2026-05-01 13:07 | 21.17211 | -20.18192 | 37105 ft | 492 kts | 25° |
| 2026-05-01 13:07 | 21.20146 | -20.16296 | 37107 ft | 492 kts | 25° |
| 2026-05-01 13:08 | 21.26067 | -20.12466 | 37109 ft | 491 kts | 25° |
| 2026-05-01 13:08 | 21.31924 | -20.08674 | 37110 ft | 491 kts | 25° |
| 2026-05-01 13:09 | 21.37809 | -20.04862 | 37109 ft | 492 kts | 25° |
| 2026-05-01 13:09 | 21.43716 | -20.01031 | 37112 ft | 492 kts | 25° |
| 2026-05-01 13:10 | 21.49624 | -19.97196 | 37111 ft | 492 kts | 25° |
| 2026-05-01 13:10 | 21.55507 | -19.93373 | 37107 ft | 493 kts | 25° |
| 2026-05-01 13:11 | 21.61439 | -19.89515 | 37113 ft | 493 kts | 25° |
| 2026-05-01 13:11 | 21.67346 | -19.85669 | 37111 ft | 493 kts | 25° |
| 2026-05-01 13:12 | 21.73225 | -19.81838 | 37108 ft | 494 kts | 25° |
| 2026-05-01 13:12 | 21.79174 | -19.77957 | 37111 ft | 495 kts | 25° |
| 2026-05-01 13:13 | 21.85076 | -19.74104 | 37110 ft | 495 kts | 25° |
| 2026-05-01 13:13 | 21.91005 | -19.70229 | 37110 ft | 496 kts | 25° |
| 2026-05-01 13:14 | 21.96948 | -19.66340 | 37111 ft | 497 kts | 25° |
| 2026-05-01 13:14 | 22.02913 | -19.62434 | 37110 ft | 497 kts | 25° |
| 2026-05-01 13:15 | 22.08828 | -19.58557 | 37109 ft | 498 kts | 25° |
| 2026-05-01 13:15 | 22.14798 | -19.54639 | 37111 ft | 498 kts | 25° |
| 2026-05-01 13:16 | 22.20751 | -19.50728 | 37109 ft | 498 kts | 25° |
| 2026-05-01 13:16 | 22.26711 | -19.46808 | 37110 ft | 499 kts | 25° |
| 2026-05-01 13:17 | 22.38664 | -19.38936 | 37112 ft | 499 kts | 25° |
| 2026-05-01 13:18 | 22.47562 | -19.33066 | 37096 ft | 497 kts | 25° |
| 2026-05-01 13:18 | 22.53487 | -19.29151 | 37099 ft | 494 kts | 25° |
| 2026-05-01 13:19 | 22.59380 | -19.25254 | 37097 ft | 493 kts | 25° |
| 2026-05-01 13:20 | 22.68219 | -19.19402 | 37101 ft | 493 kts | 25° |
| 2026-05-01 13:20 | 22.74082 | -19.15515 | 37105 ft | 492 kts | 25° |
| 2026-05-01 13:21 | 22.82889 | -19.09669 | 37101 ft | 492 kts | 25° |
| 2026-05-01 13:21 | 22.88751 | -19.05773 | 37106 ft | 492 kts | 25° |
| 2026-05-01 13:22 | 22.94636 | -19.01857 | 37112 ft | 492 kts | 25° |
| 2026-05-01 13:22 | 23.00518 | -18.97940 | 37113 ft | 493 kts | 25° |
| 2026-05-01 13:23 | 23.06392 | -18.94024 | 37114 ft | 493 kts | 25° |
| 2026-05-01 13:23 | 23.12300 | -18.90080 | 37112 ft | 494 kts | 25° |
| 2026-05-01 13:24 | 23.18154 | -18.86170 | 37109 ft | 494 kts | 25° |
| 2026-05-01 13:25 | 23.27023 | -18.80236 | 37111 ft | 495 kts | 25° |
| 2026-05-01 13:25 | 23.32905 | -18.76296 | 37118 ft | 495 kts | 25° |
| 2026-05-01 13:26 | 23.38838 | -18.72317 | 37115 ft | 496 kts | 25° |
| 2026-05-01 13:26 | 23.44715 | -18.68372 | 37114 ft | 496 kts | 25° |
| 2026-05-01 13:27 | 23.50652 | -18.64383 | 37117 ft | 497 kts | 25° |
| 2026-05-01 13:27 | 23.59546 | -18.58398 | 37118 ft | 498 kts | 25° |
| 2026-05-01 13:28 | 23.68420 | -18.52417 | 37123 ft | 499 kts | 26° |
| 2026-05-01 13:29 | 23.80344 | -18.44365 | 37122 ft | 501 kts | 26° |
| 2026-05-01 13:31 | 23.98273 | -18.32225 | 37112 ft | 502 kts | 26° |
| 2026-05-01 13:32 | 24.13205 | -18.22083 | 37110 ft | 501 kts | 26° |
| 2026-05-01 13:33 | 24.28062 | -18.11964 | 37111 ft | 500 kts | 26° |
| 2026-05-01 13:34 | 24.39910 | -18.03875 | 37111 ft | 499 kts | 26° |
| 2026-05-01 13:35 | 24.48811 | -17.97786 | 37109 ft | 499 kts | 26° |
| 2026-05-01 13:36 | 24.57703 | -17.91692 | 37113 ft | 499 kts | 26° |
| 2026-05-01 13:36 | 24.66590 | -17.85591 | 37115 ft | 500 kts | 26° |
| 2026-05-01 13:37 | 24.72531 | -17.81508 | 37116 ft | 500 kts | 26° |
| 2026-05-01 13:37 | 24.78445 | -17.77437 | 37115 ft | 500 kts | 26° |
| 2026-05-01 13:38 | 24.87340 | -17.71307 | 37116 ft | 501 kts | 26° |
| 2026-05-01 13:39 | 24.93293 | -17.67198 | 37118 ft | 501 kts | 26° |
| 2026-05-01 13:39 | 24.99221 | -17.63103 | 37122 ft | 502 kts | 26° |
| 2026-05-01 13:40 | 25.05173 | -17.58981 | 37120 ft | 502 kts | 26° |
| 2026-05-01 13:40 | 25.11134 | -17.54848 | 37121 ft | 503 kts | 26° |
| 2026-05-01 13:41 | 25.17094 | -17.50710 | 37122 ft | 502 kts | 26° |
| 2026-05-01 13:41 | 25.23021 | -17.46591 | 37125 ft | 502 kts | 26° |
| 2026-05-01 13:42 | 25.28972 | -17.42449 | 37127 ft | 502 kts | 26° |
| 2026-05-01 13:42 | 25.34936 | -17.38295 | 37124 ft | 502 kts | 26° |
| 2026-05-01 13:43 | 25.40880 | -17.34149 | 37115 ft | 502 kts | 27° |
| 2026-05-01 13:43 | 25.46818 | -17.30002 | 37109 ft | 501 kts | 27° |
| 2026-05-01 13:44 | 25.52708 | -17.25884 | 37113 ft | 500 kts | 27° |
| 2026-05-01 13:44 | 25.58634 | -17.21737 | 37113 ft | 500 kts | 27° |
| 2026-05-01 13:45 | 25.64549 | -17.17591 | 37111 ft | 499 kts | 27° |
| 2026-05-01 13:45 | 25.70440 | -17.13458 | 37111 ft | 498 kts | 27° |
| 2026-05-01 13:46 | 25.76298 | -17.09343 | 37113 ft | 498 kts | 27° |
| 2026-05-01 13:46 | 25.82205 | -17.05189 | 37112 ft | 497 kts | 27° |
| 2026-05-01 13:47 | 25.88064 | -17.01064 | 37113 ft | 497 kts | 27° |
| 2026-05-01 13:47 | 25.93924 | -16.96933 | 37113 ft | 497 kts | 27° |
| 2026-05-01 13:48 | 25.99800 | -16.92785 | 37117 ft | 497 kts | 27° |
| 2026-05-01 13:48 | 26.05663 | -16.88642 | 37113 ft | 497 kts | 27° |
| 2026-05-01 13:49 | 26.11533 | -16.84489 | 37114 ft | 496 kts | 27° |
| 2026-05-01 13:49 | 26.17431 | -16.80311 | 37119 ft | 496 kts | 27° |
| 2026-05-01 13:50 | 26.23272 | -16.76176 | 37121 ft | 496 kts | 27° |
| 2026-05-01 13:50 | 26.29131 | -16.72028 | 37124 ft | 495 kts | 27° |
| 2026-05-01 13:51 | 26.34965 | -16.67892 | 37126 ft | 495 kts | 27° |
| 2026-05-01 13:51 | 26.40791 | -16.63757 | 37130 ft | 495 kts | 27° |
| 2026-05-01 13:52 | 26.46630 | -16.59608 | 37133 ft | 495 kts | 27° |
| 2026-05-01 13:52 | 26.52453 | -16.55466 | 37136 ft | 494 kts | 27° |
| 2026-05-01 13:53 | 26.58295 | -16.51304 | 37138 ft | 494 kts | 28° |
| 2026-05-01 13:53 | 26.67021 | -16.45080 | 37138 ft | 494 kts | 28° |
| 2026-05-01 13:54 | 26.72846 | -16.40917 | 37141 ft | 494 kts | 28° |
| 2026-05-01 13:54 | 26.78698 | -16.36731 | 37140 ft | 494 kts | 28° |
| 2026-05-01 13:55 | 26.84531 | -16.32553 | 37126 ft | 494 kts | 28° |
| 2026-05-01 13:55 | 26.90320 | -16.28401 | 37130 ft | 493 kts | 28° |
| 2026-05-01 13:56 | 26.96095 | -16.24245 | 37131 ft | 492 kts | 28° |
| 2026-05-01 13:56 | 27.01871 | -16.20084 | 37131 ft | 491 kts | 28° |
| 2026-05-01 13:57 | 27.07671 | -16.15901 | 37134 ft | 491 kts | 28° |
| 2026-05-01 13:57 | 27.13439 | -16.11735 | 37132 ft | 490 kts | 28° |
| 2026-05-01 13:58 | 27.19184 | -16.07582 | 37133 ft | 489 kts | 29° |
| 2026-05-01 13:58 | 27.24962 | -16.03398 | 37126 ft | 489 kts | 29° |
| 2026-05-01 13:59 | 27.30697 | -15.99241 | 37133 ft | 488 kts | 29° |
| 2026-05-01 13:59 | 27.36444 | -15.95069 | 37132 ft | 488 kts | 29° |
| 2026-05-01 14:00 | 27.42177 | -15.90903 | 37132 ft | 487 kts | 29° |
| 2026-05-01 14:00 | 27.47898 | -15.86741 | 37132 ft | 486 kts | 29° |
| 2026-05-01 14:01 | 27.53580 | -15.82601 | 37129 ft | 485 kts | 29° |
| 2026-05-01 14:01 | 27.59262 | -15.78457 | 37132 ft | 484 kts | 29° |
| 2026-05-01 14:02 | 27.64942 | -15.74308 | 37130 ft | 484 kts | 29° |
| 2026-05-01 14:02 | 27.70623 | -15.70155 | 37132 ft | 483 kts | 29° |
| 2026-05-01 14:03 | 27.76313 | -15.65988 | 37132 ft | 482 kts | 29° |
| 2026-05-01 14:03 | 27.81937 | -15.61866 | 37143 ft | 480 kts | 29° |
| 2026-05-01 14:04 | 27.87572 | -15.57730 | 37149 ft | 478 kts | 29° |
| 2026-05-01 14:04 | 27.93160 | -15.53624 | 37153 ft | 477 kts | 29° |
| 2026-05-01 14:05 | 27.95958 | -15.51565 | 36942 ft | 472 kts | 30° |
| 2026-05-01 14:05 | 27.98711 | -15.49539 | 36629 ft | 464 kts | 29° |
| 2026-05-01 14:05 | 28.01407 | -15.47553 | 36203 ft | 458 kts | 29° |
| 2026-05-01 14:05 | 28.04083 | -15.45582 | 35623 ft | 457 kts | 30° |
| 2026-05-01 14:06 | 28.06730 | -15.43581 | 34974 ft | 458 kts | 34° |
| 2026-05-01 14:06 | 28.08960 | -15.40960 | 34348 ft | 462 kts | 52° |
| 2026-05-01 14:06 | 28.10822 | -15.38010 | 33733 ft | 463 kts | 52° |
| 2026-05-01 14:06 | 28.12709 | -15.35037 | 33145 ft | 462 kts | 53° |
| 2026-05-01 14:07 | 28.14594 | -15.32063 | 32594 ft | 461 kts | 53° |
| 2026-05-01 14:07 | 28.16469 | -15.29103 | 32046 ft | 459 kts | 53° |
| 2026-05-01 14:07 | 28.18311 | -15.26193 | 31503 ft | 458 kts | 53° |
| 2026-05-01 14:08 | 28.22035 | -15.20306 | 30407 ft | 454 kts | 53° |
| 2026-05-01 14:08 | 28.23847 | -15.17438 | 29867 ft | 450 kts | 53° |
| 2026-05-01 14:08 | 28.25684 | -15.14530 | 29323 ft | 447 kts | 53° |
| 2026-05-01 14:08 | 28.27474 | -15.11693 | 28807 ft | 440 kts | 53° |
| 2026-05-01 14:09 | 28.29244 | -15.08886 | 28293 ft | 437 kts | 53° |
| 2026-05-01 14:09 | 28.31025 | -15.06060 | 27774 ft | 435 kts | 53° |
| 2026-05-01 14:09 | 28.32767 | -15.03294 | 27265 ft | 432 kts | 53° |
| 2026-05-01 14:09 | 28.34517 | -15.00513 | 26752 ft | 430 kts | 53° |
| 2026-05-01 14:10 | 28.36243 | -14.97770 | 26245 ft | 427 kts | 53° |
| 2026-05-01 14:10 | 28.37973 | -14.95017 | 25730 ft | 421 kts | 53° |
| 2026-05-01 14:10 | 28.39661 | -14.92331 | 25222 ft | 415 kts | 53° |
| 2026-05-01 14:10 | 28.41324 | -14.89680 | 24717 ft | 410 kts | 53° |
| 2026-05-01 14:11 | 28.42964 | -14.87067 | 24215 ft | 406 kts | 53° |
| 2026-05-01 14:11 | 28.46157 | -14.81972 | 23226 ft | 387 kts | 54° |
| 2026-05-01 14:11 | 28.47715 | -14.79485 | 22731 ft | 380 kts | 54° |
| 2026-05-01 14:12 | 28.49238 | -14.77052 | 22246 ft | 382 kts | 54° |
| 2026-05-01 14:12 | 28.50794 | -14.74565 | 21784 ft | 397 kts | 54° |
| 2026-05-01 14:12 | 28.52425 | -14.71955 | 21310 ft | 404 kts | 54° |
| 2026-05-01 14:12 | 28.54041 | -14.69368 | 20730 ft | 396 kts | 54° |
| 2026-05-01 14:13 | 28.55612 | -14.66853 | 20132 ft | 390 kts | 54° |
| 2026-05-01 14:13 | 28.57165 | -14.64364 | 19533 ft | 384 kts | 55° |
| 2026-05-01 14:13 | 28.58714 | -14.61880 | 18916 ft | 380 kts | 55° |
| 2026-05-01 14:13 | 28.60237 | -14.59437 | 18269 ft | 377 kts | 55° |
| 2026-05-01 14:14 | 28.61746 | -14.57014 | 17625 ft | 374 kts | 55° |
| 2026-05-01 14:14 | 28.63247 | -14.54603 | 16980 ft | 372 kts | 55° |
| 2026-05-01 14:14 | 28.64737 | -14.52208 | 16338 ft | 369 kts | 55° |
| 2026-05-01 14:14 | 28.66207 | -14.49844 | 15633 ft | 369 kts | 55° |
| 2026-05-01 14:15 | 28.67688 | -14.47462 | 14918 ft | 368 kts | 55° |
| 2026-05-01 14:15 | 28.69157 | -14.45097 | 14206 ft | 367 kts | 55° |
| 2026-05-01 14:15 | 28.70605 | -14.42688 | 13488 ft | 365 kts | 54° |
| 2026-05-01 14:15 | 28.72067 | -14.40380 | 12994 ft | 357 kts | 55° |
| 2026-05-01 14:16 | 28.73484 | -14.38108 | 12467 ft | 351 kts | 55° |
| 2026-05-01 14:16 | 28.74880 | -14.35858 | 12045 ft | 342 kts | 55° |
| 2026-05-01 14:16 | 28.76220 | -14.33695 | 11970 ft | 323 kts | 56° |
| 2026-05-01 14:16 | 28.77476 | -14.31666 | 11897 ft | 306 kts | 55° |
| 2026-05-01 14:17 | 28.78697 | -14.29691 | 11479 ft | 305 kts | 55° |
| 2026-05-01 14:17 | 28.79924 | -14.27704 | 11001 ft | 306 kts | 55° |
| 2026-05-01 14:17 | 28.80974 | -14.26005 | 10607 ft | 306 kts | 55° |
| 2026-05-01 14:18 | 28.81062 | -14.25863 | 10573 ft | 305 kts | 55° |
| 2026-05-01 14:18 | 28.82268 | -14.23908 | 10119 ft | 303 kts | 55° |
| 2026-05-01 14:18 | 28.83489 | -14.21930 | 9658 ft | 302 kts | 55° |
| 2026-05-01 14:18 | 28.84286 | -14.20638 | 9355 ft | 302 kts | 55° |
| 2026-05-01 14:19 | 28.85899 | -14.18023 | 8856 ft | 296 kts | 55° |
| 2026-05-01 14:19 | 28.87058 | -14.16142 | 8697 ft | 285 kts | 55° |
| 2026-05-01 14:19 | 28.88170 | -14.14334 | 8638 ft | 271 kts | 55° |
| 2026-05-01 14:19 | 28.89229 | -14.12612 | 8576 ft | 259 kts | 55° |
| 2026-05-01 14:20 | 28.90243 | -14.10963 | 8515 ft | 248 kts | 55° |
| 2026-05-01 14:20 | 28.91899 | -14.07626 | 8117 ft | 241 kts | 85° |
| 2026-05-01 14:20 | 28.91972 | -14.05731 | 7919 ft | 238 kts | 88° |
| 2026-05-01 14:21 | 28.92079 | -14.03846 | 7711 ft | 236 kts | 87° |
| 2026-05-01 14:21 | 28.92192 | -14.02005 | 7517 ft | 234 kts | 86° |
| 2026-05-01 14:21 | 28.92310 | -14.00141 | 7322 ft | 232 kts | 86° |
| 2026-05-01 14:22 | 28.92539 | -13.96519 | 6980 ft | 227 kts | 86° |
| 2026-05-01 14:22 | 28.92652 | -13.94728 | 6802 ft | 225 kts | 86° |
| 2026-05-01 14:22 | 28.92765 | -13.92940 | 6626 ft | 225 kts | 86° |
| 2026-05-01 14:22 | 28.92877 | -13.91159 | 6453 ft | 226 kts | 86° |
| 2026-05-01 14:23 | 28.92989 | -13.89370 | 6288 ft | 228 kts | 86° |
| 2026-05-01 14:23 | 28.93260 | -13.87572 | 6122 ft | 230 kts | 83° |
| 2026-05-01 14:23 | 28.93286 | -13.86957 | 6038 ft | 231 kts | 95° |
| 2026-05-01 14:24 | 28.92816 | -13.85403 | 5826 ft | 232 kts | 127° |
| 2026-05-01 14:24 | 28.91564 | -13.84334 | 5700 ft | 228 kts | 163° |
| 2026-05-01 14:25 | 28.89989 | -13.84138 | 5573 ft | 226 kts | 174° |
| 2026-05-01 14:25 | 28.88455 | -13.83773 | 5447 ft | 225 kts | 164° |
| 2026-05-01 14:25 | 28.86967 | -13.83208 | 5325 ft | 225 kts | 159° |
| 2026-05-01 14:25 | 28.85527 | -13.82505 | 5207 ft | 224 kts | 154° |
| 2026-05-01 14:26 | 28.84135 | -13.81680 | 5062 ft | 225 kts | 150° |
| 2026-05-01 14:26 | 28.81483 | -13.79658 | 4465 ft | 232 kts | 141° |
| 2026-05-01 14:26 | 28.80249 | -13.78472 | 4209 ft | 232 kts | 136° |
| 2026-05-01 14:27 | 28.79104 | -13.77193 | 3975 ft | 231 kts | 132° |
| 2026-05-01 14:27 | 28.78079 | -13.75771 | 3737 ft | 229 kts | 127° |
| 2026-05-01 14:27 | 28.77111 | -13.74343 | 3510 ft | 227 kts | 118° |
| 2026-05-01 14:28 | 28.77093 | -13.71047 | 3103 ft | 215 kts | 51° |
| 2026-05-01 14:28 | 28.78245 | -13.70040 | 3039 ft | 204 kts | 29° |
| 2026-05-01 14:28 | 28.79469 | -13.69290 | 2954 ft | 191 kts | 25° |
| 2026-05-01 14:28 | 28.80658 | -13.68681 | 2788 ft | 184 kts | 32° |
| 2026-05-01 14:29 | 28.81751 | -13.67944 | 2590 ft | 181 kts | 29° |
| 2026-05-01 14:29 | 28.82852 | -13.67278 | 2368 ft | 179 kts | 28° |
| 2026-05-01 14:30 | 28.86090 | -13.65398 | 1703 ft | 164 kts | 27° |
| 2026-05-01 14:30 | 28.87098 | -13.64818 | 1478 ft | 157 kts | 27° |
| 2026-05-01 14:30 | 28.88048 | -13.64270 | 1272 ft | 146 kts | 28° |
| 2026-05-01 14:31 | 28.89628 | -13.63359 | 929 ft | 120 kts | 29° |
| 2026-05-01 14:31 | 28.90392 | -13.62923 | 728 ft | 120 kts | 30° |
| 2026-05-01 14:31 | 28.91126 | -13.62495 | 597 ft | 115 kts | 30° |
| 2026-05-01 14:31 | 28.91880 | -13.62064 | 465 ft | 120 kts | 28° |
| 2026-05-01 14:32 | 28.92625 | -13.61640 | 312 ft | 122 kts | 32° |
| 2026-05-01 14:32 | 28.93375 | -13.61206 | 130 ft | 117 kts | 31° |
| 2026-05-01 14:32 | 28.94105 | -13.60782 | 41 ft | 111 kts | 31° |
| 2026-05-01 14:32 | 28.94696 | -13.60435 | 53 ft | 71 kts | 27° |
| 2026-05-01 14:33 | 28.94987 | -13.60268 | 59 ft | 31 kts | 26° |
| 2026-05-01 14:33 | 28.95128 | -13.60210 | 63 ft | 20 kts | 3° |
| 2026-05-01 14:33 | 28.95255 | -13.60207 | 69 ft | 10 kts | 1° |
| 2026-05-01 14:33 | 28.95284 | -13.60207 | 71 ft | 2 kts | 358° |
| 2026-05-01 14:34 | 28.95294 | -13.60209 | 71 ft | 1 kts | 347° |
| 2026-05-01 14:34 | 28.95316 | -13.60223 | 73 ft | 6 kts | 316° |
| 2026-05-01 14:34 | 28.95344 | -13.60283 | 78 ft | 9 kts | 295° |
| 2026-05-01 14:34 | 28.95374 | -13.60351 | 83 ft | 8 kts | 296° |
| 2026-05-01 14:35 | 28.95381 | -13.60398 | 87 ft | 5 kts | 251° |
| 2026-05-01 14:35 | 28.95384 | -13.60442 | 89 ft | 6 kts | 297° |
| 2026-05-01 14:35 | 28.95400 | -13.60478 | 90 ft | 4 kts | 296° |
| 2026-05-01 14:35 | 28.95403 | -13.60485 | 90 ft | 0 kts | 296° |